Time;durP1;ratioP1;P1;durP2;ratioP2;P2;SDS_P1;SDS_P2;PMS_P1;PMS_P2;Temp;Humidity;BMP_temperature;BMP_pressure;BME280_temperature;BME280_humidity;BME280_pressure;Samples;Min_cycle;Max_cycle;Signal;HPM_P1;HPM_P2
2021/10/29 00:00:45;;;;;;;6.55;5.85;;;7.00;99.90;;;;;;7374209;19;20311;-80
2021/10/29 00:03:12;;;;;;;7.30;6.60;;;6.90;99.90;;;;;;7355430;19;20324;-80
2021/10/29 00:05:38;;;;;;;7.88;5.88;;;6.90;99.90;;;;;;7375764;19;20332;-80
2021/10/29 00:08:04;;;;;;;6.13;5.53;;;6.90;99.90;;;;;;7375216;19;20324;-80
2021/10/29 00:10:32;;;;;;;7.93;6.17;;;6.90;99.90;;;;;;7379177;19;20865;-80
2021/10/29 00:13:01;;;;;;;8.40;7.47;;;6.80;99.90;;;;;;7379833;19;20363;-80
2021/10/29 00:15:27;;;;;;;9.18;7.30;;;6.70;99.90;;;;;;7355717;19;20863;-80
2021/10/29 00:17:53;;;;;;;9.37;6.17;;;6.80;99.90;;;;;;7378137;19;20396;-81
2021/10/29 00:20:19;;;;;;;8.03;6.90;;;6.90;99.90;;;;;;7378494;19;20317;-80
2021/10/29 00:22:47;;;;;;;11.45;8.10;;;6.90;99.90;;;;;;7380650;19;20313;-80
2021/10/29 00:25:13;;;;;;;11.05;7.78;;;6.90;99.90;;;;;;7379215;19;20309;-80
2021/10/29 00:27:40;;;;;;;6.22;5.63;;;6.90;99.90;;;;;;7380118;19;20343;-80
2021/10/29 00:30:07;;;;;;;6.40;5.78;;;6.80;99.90;;;;;;7377844;19;20332;-81
2021/10/29 00:32:33;;;;;;;6.55;5.63;;;6.60;99.90;;;;;;7383972;19;20336;-81
2021/10/29 00:35:13;;;;;;;6.45;5.43;;;6.80;99.90;;;;;;7355483;19;20344;-81
2021/10/29 00:38:28;;;;;;;5.47;4.97;;;6.80;99.90;;;;;;7359411;19;20356;-81
2021/10/29 00:40:57;;;;;;;5.28;4.78;;;6.90;99.90;;;;;;7252949;19;2004419;-80
2021/10/29 00:43:23;;;;;;;5.68;5.10;;;6.70;99.90;;;;;;7379688;19;20320;-80
2021/10/29 00:45:50;;;;;;;5.60;5.03;;;6.60;99.90;;;;;;7376293;19;20387;-80
2021/10/29 00:48:17;;;;;;;5.60;5.10;;;6.60;99.90;;;;;;7354123;19;20317;-81
2021/10/29 00:50:44;;;;;;;6.47;5.32;;;6.60;99.90;;;;;;7375750;19;20352;-80
2021/10/29 00:53:13;;;;;;;6.90;6.20;;;6.70;99.90;;;;;;7357975;19;20647;-80
2021/10/29 00:55:39;;;;;;;5.85;5.28;;;6.70;99.90;;;;;;7375741;19;20337;-80
2021/10/29 00:58:05;;;;;;;5.45;4.97;;;6.50;99.90;;;;;;7354769;19;20766;-80
2021/10/29 01:00:32;;;;;;;5.57;5.07;;;6.50;99.90;;;;;;7356796;19;20325;-81
2021/10/29 01:03:15;;;;;;;6.50;5.90;;;6.50;99.90;;;;;;7329918;19;20414;-81
2021/10/29 01:05:41;;;;;;;5.32;4.72;;;6.50;99.90;;;;;;7275851;19;2004463;-80
2021/10/29 01:08:10;;;;;;;6.70;5.50;;;6.40;99.90;;;;;;7376396;19;20329;-80
2021/10/29 01:10:35;;;;;;;5.63;4.80;;;6.30;99.90;;;;;;7376593;19;20345;-81
2021/10/29 01:13:01;;;;;;;4.93;4.53;;;6.30;99.90;;;;;;7380799;19;20320;-80
2021/10/29 01:15:27;;;;;;;5.43;4.93;;;6.20;99.90;;;;;;7384209;19;20321;-80
2021/10/29 01:17:54;;;;;;;5.77;4.97;;;6.20;99.90;;;;;;7382752;19;20324;-80
2021/10/29 01:20:21;;;;;;;5.93;5.38;;;6.20;99.90;;;;;;7380642;19;20333;-80
2021/10/29 01:22:47;;;;;;;4.68;4.28;;;6.10;99.90;;;;;;7382446;19;20312;-80
2021/10/29 01:25:13;;;;;;;7.38;6.63;;;6.10;99.90;;;;;;7382120;19;20324;-80
2021/10/29 01:27:39;;;;;;;7.72;5.35;;;6.10;99.90;;;;;;7381380;19;20323;-80
2021/10/29 01:30:06;;;;;;;5.93;5.40;;;5.90;99.90;;;;;;7381300;19;20412;-80
2021/10/29 01:32:35;;;;;;;5.75;5.15;;;6.00;99.90;;;;;;7360666;19;20337;-80
2021/10/29 01:35:01;;;;;;;5.57;5.05;;;5.80;99.90;;;;;;7326695;19;20920;-80
2021/10/29 01:37:28;;;;;;;6.47;5.35;;;5.90;99.90;;;;;;7366883;19;20727;-80
2021/10/29 01:39:56;;;;;;;5.18;4.70;;;5.90;99.90;;;;;;7380906;19;20332;-81
2021/10/29 01:42:27;;;;;;;5.97;5.38;;;5.80;99.90;;;;;;7385684;19;20345;-81
2021/10/29 01:44:54;;;;;;;5.53;4.88;;;5.70;99.90;;;;;;7361090;19;20398;-80
2021/10/29 01:47:21;;;;;;;7.25;6.07;;;5.70;99.90;;;;;;7342633;19;20341;-80
2021/10/29 01:49:51;;;;;;;5.47;4.97;;;5.70;99.90;;;;;;7340709;19;20333;-81
2021/10/29 01:52:18;;;;;;;5.75;5.20;;;5.70;99.90;;;;;;7376333;19;20384;-80
2021/10/29 01:54:50;;;;;;;6.38;4.93;;;5.60;99.90;;;;;;7384004;19;20883;-79
2021/10/29 01:57:17;;;;;;;7.07;6.05;;;5.60;99.90;;;;;;7360974;19;20333;-81
2021/10/29 01:59:44;;;;;;;6.90;5.47;;;5.60;99.90;;;;;;7361344;19;20311;-80
2021/10/29 02:02:11;;;;;;;5.65;5.13;;;5.30;99.90;;;;;;7387608;19;20348;-80
2021/10/29 02:04:50;;;;;;;6.05;5.05;;;5.50;99.90;;;;;;7281759;19;2004380;-81
2021/10/29 02:07:17;;;;;;;6.60;5.20;;;5.50;99.90;;;;;;7380078;19;20893;-80
2021/10/29 02:09:44;;;;;;;5.67;5.00;;;5.40;99.90;;;;;;7378781;19;20331;-80
2021/10/29 02:12:10;;;;;;;7.18;5.60;;;5.40;99.90;;;;;;7379350;19;20304;-80
2021/10/29 02:14:39;;;;;;;5.35;4.85;;;5.30;99.90;;;;;;7362226;19;20337;-80
2021/10/29 02:17:14;;;;;;;5.27;4.77;;;5.30;99.90;;;;;;7384463;19;20335;-81
2021/10/29 02:20:38;;;;;;;6.55;5.72;;;5.30;99.90;;;;;;7261930;19;2004445;-80
2021/10/29 02:27:17;;;;;;;6.00;4.85;;;5.40;99.90;;;;;;7248178;19;2004499;-80
2021/10/29 02:30:44;;;;;;;6.22;5.63;;;5.20;99.90;;;;;;7332691;19;20632;-80
2021/10/29 02:33:12;;;;;;;4.25;3.92;;;5.20;99.90;;;;;;7280382;19;2004449;-80
2021/10/29 02:35:39;;;;;;;5.95;4.95;;;5.20;99.90;;;;;;7372435;19;20328;-80
2021/10/29 02:38:06;;;;;;;6.32;5.00;;;4.90;99.90;;;;;;7357186;19;20340;-80
2021/10/29 02:40:33;;;;;;;5.65;5.05;;;5.10;99.90;;;;;;7379969;19;20352;-81
2021/10/29 02:42:59;;;;;;;6.78;5.53;;;5.00;99.90;;;;;;7358402;19;20325;-80
2021/10/29 02:45:29;;;;;;;5.95;5.18;;;5.00;99.90;;;;;;7377515;19;20373;-80
2021/10/29 02:47:56;;;;;;;5.40;4.90;;;5.00;99.90;;;;;;7382465;19;20309;-80
2021/10/29 02:50:22;;;;;;;5.43;4.93;;;5.00;99.90;;;;;;7377679;19;20360;-80
2021/10/29 02:53:07;;;;;;;5.05;4.65;;;5.00;99.90;;;;;;7383316;19;20336;-80
2021/10/29 02:56:18;;;;;;;5.14;4.72;;;4.90;99.90;;;;;;7350149;19;2004573;-81
2021/10/29 02:59:15;;;;;;;7.18;5.50;;;4.70;99.90;;;;;;7381843;19;20349;-81
2021/10/29 03:04:36;;;;;;;5.85;5.25;;;4.80;99.90;;;;;;7285968;19;2004568;-79
2021/10/29 03:10:41;;;;;;;4.93;4.50;;;4.70;99.90;;;;;;7247822;19;20420;-81
2021/10/29 03:13:37;;;;;;;5.65;5.05;;;4.70;99.90;;;;;;7297785;19;20653;-81
2021/10/29 03:16:52;;;;;;;5.10;4.60;;;4.70;99.90;;;;;;7283978;19;2004436;-81
2021/10/29 03:19:38;;;;;;;5.15;4.63;;;4.70;99.90;;;;;;7366130;19;20332;-81
2021/10/29 03:22:07;;;;;;;6.07;4.90;;;4.60;99.90;;;;;;7387488;19;20337;-80
2021/10/29 03:24:34;;;;;;;5.30;4.78;;;4.60;99.90;;;;;;7377063;19;20547;-82
2021/10/29 03:27:00;;;;;;;5.95;5.35;;;4.60;99.90;;;;;;7373748;19;20671;-83
2021/10/29 03:29:29;;;;;;;6.32;5.47;;;4.50;99.90;;;;;;7377429;19;20340;-80
2021/10/29 03:31:56;;;;;;;5.32;4.82;;;4.50;99.90;;;;;;7375558;19;20699;-80
2021/10/29 03:34:22;;;;;;;5.07;4.68;;;4.50;99.90;;;;;;7372591;19;20333;-80
2021/10/29 03:36:49;;;;;;;5.47;4.97;;;4.40;99.90;;;;;;7379194;19;20344;-82
2021/10/29 03:39:26;;;;;;;6.95;5.45;;;4.40;99.90;;;;;;7377776;19;20576;-82
2021/10/29 03:41:58;;;;;;;7.60;6.88;;;4.40;99.90;;;;;;7377092;19;20340;-80
2021/10/29 03:47:02;;;;;;;5.32;4.82;;;4.50;99.90;;;;;;7376774;19;20320;-80
2021/10/29 03:49:40;;;;;;;5.47;5.00;;;4.20;99.90;;;;;;7372722;19;20860;-79
2021/10/29 03:52:15;;;;;;;5.50;5.00;;;4.30;99.90;;;;;;7364869;19;20313;-80
2021/10/29 03:54:43;;;;;;;6.72;5.07;;;4.30;99.90;;;;;;7368742;19;20340;-80
2021/10/29 03:57:25;;;;;;;5.38;4.88;;;4.20;99.90;;;;;;7371611;19;20329;-78
2021/10/29 03:59:52;;;;;;;5.20;4.70;;;4.10;99.90;;;;;;7267206;19;2007259;-80
2021/10/29 04:02:18;;;;;;;5.50;4.85;;;4.10;99.90;;;;;;7368305;19;20348;-79
2021/10/29 04:04:48;;;;;;;5.57;5.05;;;4.10;99.90;;;;;;7367074;19;20348;-80
2021/10/29 04:07:14;;;;;;;5.43;4.93;;;4.10;99.90;;;;;;7372426;19;21440;-80
2021/10/29 04:09:39;;;;;;;5.85;4.78;;;4.20;99.90;;;;;;7375892;19;20345;-79
2021/10/29 04:12:06;;;;;;;6.63;5.07;;;4.10;99.90;;;;;;7376291;19;20366;-79
2021/10/29 04:14:32;;;;;;;5.70;5.00;;;4.10;99.90;;;;;;7381169;19;20355;-80
2021/10/29 04:16:58;;;;;;;5.30;4.80;;;4.00;99.90;;;;;;7373242;19;20312;-79
2021/10/29 04:19:24;;;;;;;6.40;5.80;;;4.00;99.90;;;;;;7371897;19;21094;-80
2021/10/29 04:22:00;;;;;;;6.35;5.63;;;3.90;99.90;;;;;;7377445;19;20405;-80
2021/10/29 04:24:29;;;;;;;6.07;5.45;;;3.90;99.90;;;;;;7370932;19;20329;-79
2021/10/29 04:26:57;;;;;;;5.28;4.78;;;3.80;99.90;;;;;;7373073;19;20300;-80
2021/10/29 04:29:34;;;;;;;6.93;6.25;;;3.80;99.90;;;;;;7370748;19;20337;-80
2021/10/29 04:32:02;;;;;;;5.18;4.60;;;3.80;99.90;;;;;;7382099;19;20381;-80
2021/10/29 04:34:29;;;;;;;6.50;5.90;;;3.80;99.90;;;;;;7371376;19;20899;-80
2021/10/29 04:36:56;;;;;;;6.10;5.50;;;3.80;99.90;;;;;;7369713;19;20321;-78
2021/10/29 04:39:22;;;;;;;6.97;6.35;;;3.80;99.90;;;;;;7367345;19;20431;-78
2021/10/29 04:41:50;;;;;;;7.17;6.50;;;3.70;99.90;;;;;;7368682;19;21015;-78
2021/10/29 04:44:18;;;;;;;7.72;7.03;;;3.60;99.90;;;;;;7366846;19;20349;-79
2021/10/29 04:46:44;;;;;;;7.97;7.15;;;3.80;99.90;;;;;;7374533;19;20949;-79
2021/10/29 04:49:09;;;;;;;8.43;7.47;;;3.70;99.90;;;;;;7374271;19;20320;-79
2021/10/29 04:52:05;;;;;;;6.37;5.47;;;3.80;99.90;;;;;;7330407;19;20895;-79
2021/10/29 04:54:40;;;;;;;5.78;5.28;;;3.70;99.90;;;;;;7379425;19;20352;-79
2021/10/29 04:57:15;;;;;;;6.57;5.85;;;3.80;99.90;;;;;;7380118;19;20392;-81
2021/10/29 04:59:46;;;;;;;7.72;6.90;;;3.80;99.90;;;;;;7199815;19;2004457;-82
2021/10/29 05:02:15;;;;;;;7.80;6.63;;;3.70;99.90;;;;;;7361283;19;20955;-81
2021/10/29 05:04:41;;;;;;;7.88;7.13;;;3.80;99.90;;;;;;7375992;19;20345;-79
2021/10/29 05:07:07;;;;;;;6.75;6.15;;;3.80;99.90;;;;;;7380066;19;20303;-79
2021/10/29 05:09:33;;;;;;;9.70;7.45;;;3.80;99.90;;;;;;7372263;19;20727;-81
2021/10/29 05:11:59;;;;;;;9.70;8.65;;;3.80;99.90;;;;;;7375253;19;20367;-79
2021/10/29 05:14:25;;;;;;;9.45;8.50;;;3.90;99.90;;;;;;7381253;19;20296;-79
2021/10/29 05:16:54;;;;;;;11.63;9.27;;;4.00;99.90;;;;;;7379817;19;20667;-79
2021/10/29 05:19:20;;;;;;;10.48;9.38;;;4.00;99.90;;;;;;7382058;19;20940;-80
2021/10/29 05:21:46;;;;;;;10.32;9.30;;;4.10;99.90;;;;;;7380681;19;20317;-79
2021/10/29 05:24:12;;;;;;;11.13;8.77;;;4.10;99.90;;;;;;7378541;19;20369;-80
2021/10/29 05:26:41;;;;;;;8.47;7.67;;;4.10;99.90;;;;;;7380577;19;20331;-79
2021/10/29 05:29:07;;;;;;;8.27;7.35;;;4.10;99.90;;;;;;7379276;19;20349;-79
2021/10/29 05:31:36;;;;;;;6.85;5.97;;;3.90;99.90;;;;;;7345360;19;20344;-80
2021/10/29 05:34:02;;;;;;;6.53;5.90;;;4.10;99.90;;;;;;7381965;19;20341;-79
2021/10/29 05:36:28;;;;;;;9.45;7.63;;;4.10;99.90;;;;;;7379484;19;20365;-80
2021/10/29 05:38:54;;;;;;;6.18;5.57;;;4.10;99.90;;;;;;7379354;19;20336;-80
2021/10/29 05:41:21;;;;;;;6.60;6.00;;;4.10;99.90;;;;;;7375636;19;20332;-79
2021/10/29 05:43:47;;;;;;;7.43;6.65;;;4.10;99.90;;;;;;7376309;19;20311;-79
2021/10/29 05:46:13;;;;;;;7.22;6.38;;;4.10;99.90;;;;;;7374496;19;20340;-79
2021/10/29 05:48:42;;;;;;;6.03;5.43;;;4.10;99.90;;;;;;7374794;19;20416;-79
2021/10/29 05:51:09;;;;;;;6.88;6.15;;;4.00;99.90;;;;;;7377079;19;20304;-79
2021/10/29 05:53:50;;;;;;;6.15;5.55;;;4.00;99.90;;;;;;7378469;19;20809;-80
2021/10/29 05:56:16;;;;;;;7.43;6.30;;;4.00;99.90;;;;;;7375029;19;20337;-79
2021/10/29 05:58:43;;;;;;;7.25;6.55;;;4.00;99.90;;;;;;7373865;19;20351;-79
2021/10/29 06:01:09;;;;;;;6.32;5.72;;;4.00;99.90;;;;;;7376270;19;20636;-80
2021/10/29 06:03:34;;;;;;;6.93;5.82;;;4.00;99.90;;;;;;7374099;19;20309;-79
2021/10/29 06:06:01;;;;;;;9.63;7.83;;;4.00;99.90;;;;;;7372989;19;20313;-80
2021/10/29 06:08:27;;;;;;;8.77;7.30;;;3.90;99.90;;;;;;7377322;19;20387;-79
2021/10/29 06:10:53;;;;;;;7.30;6.40;;;3.90;99.90;;;;;;7376847;19;20357;-79
2021/10/29 06:13:18;;;;;;;6.40;5.80;;;3.90;99.90;;;;;;7374460;19;20358;-79
2021/10/29 06:15:47;;;;;;;7.10;6.40;;;3.90;99.90;;;;;;7375348;19;20316;-79
2021/10/29 06:18:20;;;;;;;6.68;6.03;;;3.90;99.90;;;;;;7375721;19;20928;-79
2021/10/29 06:20:46;;;;;;;6.25;5.65;;;3.90;99.90;;;;;;7374181;19;20300;-79
2021/10/29 06:23:12;;;;;;;6.03;5.53;;;3.90;99.90;;;;;;7379428;19;20325;-80
2021/10/29 06:25:42;;;;;;;7.07;5.85;;;3.90;99.90;;;;;;7366920;19;20395;-81
2021/10/29 06:28:28;;;;;;;10.93;9.80;;;3.90;99.90;;;;;;7402582;19;20316;-80
2021/10/29 06:30:58;;;;;;;7.20;6.50;;;3.80;99.90;;;;;;7376673;19;20313;-80
2021/10/29 06:33:24;;;;;;;7.28;6.43;;;3.80;99.90;;;;;;7386353;19;20328;-80
2021/10/29 06:35:55;;;;;;;6.07;5.47;;;4.00;99.90;;;;;;7384016;19;20332;-80
2021/10/29 06:38:21;;;;;;;9.45;8.48;;;3.80;99.90;;;;;;7376327;19;20325;-80
2021/10/29 06:40:49;;;;;;;6.38;5.78;;;3.80;99.90;;;;;;7378052;19;20308;-80
2021/10/29 06:46:15;;;;;;;6.72;6.13;;;3.80;99.90;;;;;;7375640;19;20300;-79
2021/10/29 06:48:48;;;;;;;7.10;6.38;;;3.90;99.90;;;;;;7242665;19;2004216;-79
2021/10/29 07:02:39;;;;;;;8.40;7.60;;;4.10;99.90;;;;;;7373482;19;20946;-80
2021/10/29 07:05:22;;;;;;;7.50;6.80;;;4.20;99.90;;;;;;7379102;19;20350;-80
2021/10/29 07:41:18;;;;;;;11.20;9.50;;;5.70;99.90;;;;;;7381020;19;20717;-80
2021/10/29 07:43:50;;;;;;;12.13;10.87;;;5.80;99.90;;;;;;7380616;19;20365;-80
2021/10/29 07:46:16;;;;;;;11.02;9.82;;;5.80;99.90;;;;;;7380963;19;20321;-80
2021/10/29 07:48:43;;;;;;;11.90;10.35;;;6.10;99.90;;;;;;7380318;19;20343;-80
2021/10/29 08:03:10;;;;;;;17.92;11.48;;;6.50;99.90;;;;;;7345391;19;20684;-80
2021/10/29 08:05:37;;;;;;;13.55;12.10;;;6.50;99.90;;;;;;7381562;19;20356;-80
2021/10/29 08:08:24;;;;;;;13.27;11.50;;;6.80;99.90;;;;;;7326919;19;20924;-80
2021/10/29 08:14:08;;;;;;;13.25;10.50;;;6.90;99.90;;;;;;7363488;19;20847;-79
2021/10/29 08:16:54;;;;;;;11.30;10.07;;;7.10;99.90;;;;;;7334322;19;20332;-79
2021/10/29 08:19:34;;;;;;;12.65;10.65;;;7.30;99.90;;;;;;7361603;19;20333;-79
2021/10/29 08:22:04;;;;;;;12.35;10.55;;;7.40;99.90;;;;;;7351033;19;20319;-79
2021/10/29 08:24:45;;;;;;;12.88;10.52;;;7.60;99.90;;;;;;7326151;19;20361;-80
2021/10/29 08:27:38;;;;;;;14.20;11.52;;;7.70;99.90;;;;;;7371525;19;20328;-79
2021/10/29 08:31:22;;;;;;;13.65;11.32;;;7.80;99.90;;;;;;7217134;19;2004405;-80
2021/10/29 08:47:57;;;;;;;10.80;9.70;;;8.50;99.90;;;;;;7364717;19;20337;-80
2021/10/29 08:55:49;;;;;;;12.48;10.45;;;8.80;99.90;;;;;;7345460;19;20337;-80
2021/10/29 09:03:31;;;;;;;10.32;9.27;;;9.20;99.90;;;;;;7396819;19;20323;-81
2021/10/29 09:06:44;;;;;;;13.73;10.05;;;9.20;99.90;;;;;;7389919;19;20333;-80
2021/10/29 09:31:33;;;;;;;12.23;10.55;;;10.20;99.90;;;;;;7189433;19;2004570;-80
2021/10/29 09:34:15;;;;;;;13.98;10.57;;;10.20;99.90;;;;;;7255953;19;2004803;-80
2021/10/29 09:36:45;;;;;;;13.40;10.48;;;10.40;99.90;;;;;;7367451;19;20452;-79
2021/10/29 09:39:20;;;;;;;12.68;11.05;;;10.70;99.90;;;;;;7349919;19;20331;-79
2021/10/29 09:42:21;;;;;;;11.90;10.23;;;10.70;99.90;;;;;;7245799;19;2004509;-80
2021/10/29 09:46:02;;;;;;;10.10;9.10;;;10.90;99.90;;;;;;7233378;19;2004616;-80
2021/10/29 09:48:51;;;;;;;12.18;9.38;;;11.00;99.90;;;;;;7183601;19;2004545;-79
2021/10/29 09:51:32;;;;;;;9.68;8.68;;;11.00;99.90;;;;;;7264607;19;2004299;-79
2021/10/29 09:54:14;;;;;;;10.05;9.00;;;11.20;99.90;;;;;;7376389;19;20723;-80
2021/10/29 09:57:07;;;;;;;11.93;9.05;;;11.50;99.90;;;;;;7380722;19;20864;-79
2021/10/29 09:59:48;;;;;;;14.30;9.48;;;11.30;99.90;;;;;;7367445;19;20684;-79
2021/10/29 17:10:13;;;;;;;6.55;5.20;;;9.40;99.90;;;;;;7350659;19;20334;-81
2021/10/29 17:12:51;;;;;;;4.68;4.25;;;9.30;99.90;;;;;;7218633;19;2004450;-81
2021/10/29 17:15:19;;;;;;;5.80;4.63;;;9.20;99.90;;;;;;7293824;19;2004425;-81
2021/10/29 17:17:46;;;;;;;6.28;4.78;;;9.30;99.90;;;;;;7393425;19;20321;-82
2021/10/29 17:20:57;;;;;;;5.38;4.85;;;9.10;99.90;;;;;;7396451;19;20827;-81
2021/10/29 17:23:24;;;;;;;6.23;4.67;;;9.10;99.90;;;;;;7396093;19;20842;-81
2021/10/29 17:26:12;;;;;;;4.90;4.40;;;9.00;99.90;;;;;;7395813;19;20311;-81
2021/10/29 17:28:40;;;;;;;4.53;4.13;;;9.00;99.90;;;;;;7270588;19;2004531;-80
2021/10/29 19:42:44;;;;;;;5.22;4.50;;;6.80;99.90;;;;;;7376771;19;20340;-82
2021/10/29 19:49:22;;;;;;;4.18;3.67;;;6.60;99.90;;;;;;7304860;19;20316;-83
2021/10/29 22:16:51;;;;;;;4.68;4.20;;;4.70;99.90;;;;;;7263425;19;20321;-82
2021/10/29 22:19:38;;;;;;;4.30;3.90;;;4.60;99.90;;;;;;7178446;19;2004395;-80
2021/10/29 22:25:42;;;;;;;5.55;4.63;;;4.30;99.90;;;;;;7361173;19;20403;-81
2021/10/29 22:28:10;;;;;;;6.35;5.70;;;4.50;99.90;;;;;;7282135;19;2004272;-80
2021/10/29 22:30:40;;;;;;;7.68;5.50;;;4.60;99.90;;;;;;7383915;19;20321;-80
2021/10/29 22:36:21;;;;;;;7.78;6.05;;;4.50;99.90;;;;;;7362667;19;20344;31
2021/10/29 22:38:49;;;;;;;5.72;5.18;;;4.50;99.90;;;;;;7380467;19;20327;-80
2021/10/29 22:53:39;;;;;;;5.50;4.43;;;4.40;99.90;;;;;;7358262;19;20327;-82
2021/10/29 22:56:11;;;;;;;6.93;4.83;;;4.40;99.90;;;;;;7361834;19;20830;-82
2021/10/29 22:58:43;;;;;;;5.05;4.60;;;4.60;99.90;;;;;;7378392;19;20317;-79
2021/10/29 23:01:15;;;;;;;4.75;4.30;;;4.30;99.90;;;;;;7281092;19;2004453;-80
2021/10/29 23:03:44;;;;;;;5.10;4.60;;;4.20;99.90;;;;;;7372153;19;20305;-80
2021/10/29 23:06:15;;;;;;;4.68;4.28;;;4.30;99.90;;;;;;7357059;19;20384;-80
2021/10/29 23:08:43;;;;;;;6.40;4.60;;;4.30;99.90;;;;;;7380547;19;20876;-80
2021/10/29 23:25:35;;;;;;;4.78;4.32;;;4.20;99.90;;;;;;7349462;19;20316;-81
2021/10/29 23:28:13;;;;;;;4.35;3.95;;;4.10;99.90;;;;;;7276515;19;2004310;-81
